This is the latest recevied weather packets stored in our database for station/object KG7FOQ-13. If no packets are shown the sender has not sent any weather packets the latest 1 day(s).
| Time | Temp. | Humidity | Pressure | Rain* | Wind** | Luminosity | Snow |
|---|---|---|---|---|---|---|---|
| 1777990354 | 11.11° C | 52% | 1010 hPa | 0 mm | 5.81 m/s, 49° | - | - |
| 1777990054 | 11.11° C | 53% | 1009.9 hPa | 0 mm | 6.26 m/s, 63° | - | - |
| 1777989753 | 11.11° C | 53% | 1009.8 hPa | 0 mm | 6.26 m/s, 53° | - | - |
| 1777989453 | 11.67° C | 52% | 1009.6 hPa | 0 mm | 7.6 m/s, 56° | - | - |
| 1777988850 | 11.11° C | 53% | 1009.5 hPa | 0 mm | 7.15 m/s, 66° | - | - |
| 1777988549 | 11.67° C | 54% | 1009.5 hPa | 0 mm | 7.6 m/s, 55° | - | - |
| 1777988294 | 11.11° C | 53% | 1009.3 hPa | 0 mm | 8.05 m/s, 63° | - | - |
| 1777988249 | 11.11° C | 53% | 1009.3 hPa | 0 mm | 8.05 m/s, 63° | - | - |
| 1777987948 | 11.11° C | 54% | 1009.2 hPa | 0 mm | 7.15 m/s, 56° | - | - |
| 1777987648 | 11.11° C | 51% | 1009.3 hPa | 0 mm | 7.6 m/s, 59° | - | - |
| 1777987047 | 11.11° C | 52% | 1009 hPa | 0 mm | 7.15 m/s, 62° | - | - |
| 1777986868 | 11.11° C | 52% | 1009 hPa | 0 mm | 7.6 m/s, 84° | - | - |
| 1777986746 | 11.11° C | 52% | 1009 hPa | 0 mm | 7.6 m/s, 84° | - | - |
| 1777986446 | 11.11° C | 51% | 1009 hPa | 0 mm | 6.71 m/s, 68° | - | - |
| 1777986145 | 11.11° C | 52% | 1009.1 hPa | 0 mm | 6.71 m/s, 45° | - | - |
| 1777985952 | 11.67° C | 50% | 1009 hPa | 0 mm | 6.26 m/s, 63° | - | - |
| 1777985845 | 11.67° C | 50% | 1009 hPa | 0 mm | 6.26 m/s, 63° | - | - |
| 1777985544 | 11.67° C | 53% | 1009 hPa | 0 mm | 5.81 m/s, 65° | - | - |
| 1777985244 | 11.67° C | 52% | 1008.8 hPa | 0 mm | 6.26 m/s, 77° | - | - |
| 1777984943 | 11.67° C | 54% | 1008.6 hPa | 0 mm | 6.71 m/s, 69° | - | - |
| 1777984642 | 11.11° C | 55% | 1008.6 hPa | 0 mm | 7.6 m/s, 62° | - | - |
| 1777984341 | 11.67° C | 55% | 1008.8 hPa | 0 mm | 5.36 m/s, 107° | - | - |
| 1777984041 | 11.67° C | 55% | 1008.9 hPa | 0 mm | 4.92 m/s, 52° | - | - |
| 1777983739 | 11.67° C | 54% | 1009 hPa | 0 mm | 3.58 m/s, 51° | - | - |
| 1777983439 | 11.67° C | 55% | 1008.8 hPa | 0 mm | 4.92 m/s, 51° | - | - |
* Rain latest hour (hover to see other rain measurements)
** Current wind speed in m/s (hover to see current wind gust speed)